createdAt,value
2018-12-04T00:02:10.986Z,165.03
2018-12-04T00:04:38.758Z,148.93
2018-12-04T00:07:06.308Z,184.73
2018-12-04T00:09:33.900Z,154.13
2018-12-04T00:12:01.468Z,154.47
2018-12-04T00:14:29.025Z,159.67
2018-12-04T00:16:56.619Z,148.80
2018-12-04T00:19:24.154Z,154.47
2018-12-04T00:21:51.718Z,156.67
2018-12-04T00:24:19.297Z,143.47
2018-12-04T00:26:47.128Z,150.97
2018-12-04T00:29:14.837Z,146.33
2018-12-04T00:31:42.404Z,148.70
2018-12-04T00:34:09.956Z,159.80
2018-12-04T00:36:37.516Z,173.10
2018-12-04T00:39:06.673Z,170.27
2018-12-04T00:41:34.209Z,152.93
2018-12-04T00:44:01.766Z,164.70
2018-12-04T00:46:29.309Z,161.13
2018-12-04T00:48:56.888Z,147.07
2018-12-04T00:51:24.672Z,150.07
2018-12-04T00:53:52.214Z,135.07
2018-12-04T00:56:19.751Z,141.43
2018-12-04T00:58:47.273Z,134.97
2018-12-04T01:01:14.871Z,180.17
2018-12-04T01:03:42.537Z,137.37
2018-12-04T01:06:10.065Z,148.37
2018-12-04T01:08:37.593Z,142.97
2018-12-04T01:11:05.169Z,159.17
2018-12-04T01:13:33.543Z,139.93
2018-12-04T01:16:01.422Z,144.83
2018-12-04T01:18:29.017Z,143.60
2018-12-04T01:20:56.552Z,127.03
2018-12-04T01:23:24.081Z,134.83
2018-12-04T01:25:51.620Z,128.10
2018-12-04T01:28:19.196Z,123.23
2018-12-04T01:30:47.680Z,130.00
2018-12-04T01:33:16.329Z,123.50
2018-12-04T01:35:43.865Z,128.10
2018-12-04T01:38:11.396Z,124.63
2018-12-04T01:40:38.937Z,130.83
2018-12-04T01:43:06.472Z,120.93
2018-12-04T01:45:34.405Z,123.17
2018-12-04T01:48:01.937Z,120.77
2018-12-04T01:50:29.489Z,123.23
2018-12-04T01:52:57.020Z,136.43
2018-12-04T01:55:24.552Z,127.60
2018-12-04T01:57:52.102Z,122.53
2018-12-04T02:00:19.794Z,119.90
2018-12-04T02:02:47.332Z,128.13
2018-12-04T02:05:14.888Z,127.67
2018-12-04T02:07:42.457Z,137.23
2018-12-04T02:10:10.020Z,123.33
2018-12-04T02:12:37.570Z,116.17
2018-12-04T02:15:06.317Z,121.10
2018-12-04T02:17:33.848Z,130.03
2018-12-04T02:20:01.404Z,128.67
2018-12-04T02:22:28.933Z,125.83
2018-12-04T02:24:56.469Z,122.97
2018-12-04T02:27:24.117Z,114.00
2018-12-04T02:29:51.653Z,120.83
2018-12-04T02:32:19.232Z,118.43
2018-12-04T02:34:46.770Z,129.97
2018-12-04T02:37:14.309Z,117.07
2018-12-04T02:39:41.842Z,119.90
2018-12-04T02:42:09.371Z,120.87
2018-12-04T02:44:36.942Z,128.67
2018-12-04T02:47:04.495Z,130.60
2018-12-04T02:49:32.039Z,127.60
2018-12-04T02:51:59.569Z,125.83
2018-12-04T02:54:27.096Z,123.67
2018-12-04T02:56:54.921Z,115.83
2018-12-04T02:59:22.455Z,113.83
2018-12-04T03:01:49.990Z,169.27
2018-12-04T03:04:17.513Z,140.47
2018-12-04T03:06:45.050Z,122.80
2018-12-04T03:09:12.920Z,115.37
2018-12-04T03:11:40.453Z,108.40
2018-12-04T03:14:07.983Z,110.73
2018-12-04T03:16:35.520Z,109.13
2018-12-04T03:19:03.060Z,113.27
2018-12-04T03:21:30.921Z,114.63
2018-12-04T03:23:58.497Z,119.30
2018-12-04T03:26:26.133Z,106.17
2018-12-04T03:28:53.683Z,116.07
2018-12-04T03:31:21.209Z,98.90
2018-12-04T03:33:48.944Z,101.70
2018-12-04T03:36:16.601Z,107.23
2018-12-04T03:38:44.149Z,112.53
2018-12-04T03:41:11.695Z,110.93
2018-12-04T03:43:39.233Z,109.47
2018-12-04T03:46:06.804Z,104.87
2018-12-04T03:48:35.003Z,110.93
2018-12-04T03:51:02.559Z,110.27
2018-12-04T03:53:30.089Z,110.93
2018-12-04T03:55:57.629Z,99.13
2018-12-04T03:58:25.183Z,97.13
2018-12-04T04:00:52.741Z,94.33
2018-12-04T04:03:20.464Z,96.70
2018-12-04T04:05:48.029Z,95.47
2018-12-04T04:08:15.576Z,88.40
2018-12-04T04:10:43.113Z,88.47
2018-12-04T04:13:10.662Z,87.63
2018-12-04T04:15:38.613Z,94.17
2018-12-04T04:18:06.154Z,86.00
2018-12-04T04:20:34.048Z,88.13
2018-12-04T04:23:01.594Z,87.93
2018-12-04T04:25:29.129Z,82.97
2018-12-04T04:27:56.704Z,82.53
2018-12-04T04:30:24.261Z,86.37
2018-12-04T04:32:51.812Z,86.97
2018-12-04T04:35:19.344Z,85.30
2018-12-04T04:37:46.923Z,84.37
2018-12-04T04:40:14.457Z,85.40
2018-12-04T04:42:42.051Z,80.63
2018-12-04T04:45:09.617Z,88.27
2018-12-04T04:47:37.161Z,85.80
2018-12-04T04:50:05.173Z,87.70
2018-12-04T04:52:32.703Z,83.67
2018-12-04T04:55:00.242Z,83.53
2018-12-04T04:57:27.777Z,91.67
2018-12-04T04:59:55.334Z,88.03
2018-12-04T05:02:22.894Z,88.87
2018-12-04T05:04:50.434Z,97.23
2018-12-04T05:07:18.005Z,88.10
2018-12-04T05:09:45.636Z,88.37
2018-12-04T05:12:13.636Z,83.63
2018-12-04T05:14:42.113Z,83.10
2018-12-04T05:17:09.644Z,84.00
2018-12-04T05:19:37.202Z,80.73
2018-12-04T05:22:04.733Z,80.20
2018-12-04T05:24:32.572Z,75.80
2018-12-04T05:27:00.113Z,78.53
2018-12-04T05:29:27.647Z,73.63
2018-12-04T05:31:55.168Z,75.87
2018-12-04T05:34:22.759Z,78.20
2018-12-04T05:36:50.317Z,76.53
2018-12-04T05:39:17.839Z,78.50
2018-12-04T05:41:45.361Z,76.00
2018-12-04T05:44:13.008Z,76.33
2018-12-04T05:46:40.544Z,80.43
2018-12-04T05:49:08.076Z,76.03
2018-12-04T05:51:37.624Z,77.83
2018-12-04T05:54:05.451Z,76.83
2018-12-04T05:56:33.071Z,85.83
2018-12-04T05:59:00.640Z,84.40
2018-12-04T06:01:28.173Z,85.63
2018-12-04T06:03:55.729Z,84.20
2018-12-04T06:06:23.330Z,88.17
2018-12-04T06:08:50.978Z,86.27
2018-12-04T06:11:18.536Z,81.40
2018-12-04T06:13:46.056Z,80.07
2018-12-04T06:16:13.654Z,76.47
2018-12-04T06:18:41.200Z,79.40
2018-12-04T06:21:08.789Z,89.33
2018-12-04T06:23:36.679Z,103.60
2018-12-04T06:26:04.244Z,78.27
2018-12-04T06:28:31.781Z,78.23
2018-12-04T06:30:59.330Z,74.07
2018-12-04T06:33:28.538Z,76.00
2018-12-04T06:35:56.068Z,79.13
2018-12-04T06:38:23.605Z,82.37
2018-12-04T06:40:51.415Z,75.10
2018-12-04T06:43:18.983Z,77.60
2018-12-04T06:45:46.525Z,77.77
2018-12-04T06:48:14.044Z,78.93
2018-12-04T06:50:41.568Z,81.57
2018-12-04T06:53:09.092Z,79.47
2018-12-04T06:55:36.621Z,76.70
2018-12-04T06:58:04.337Z,77.80
2018-12-04T07:00:31.916Z,75.67
2018-12-04T07:02:59.474Z,76.73
2018-12-04T07:05:27.000Z,82.97
2018-12-04T07:07:54.540Z,78.03
2018-12-04T07:10:22.339Z,79.47
2018-12-04T07:12:49.931Z,76.57
2018-12-04T07:15:17.865Z,81.10
2018-12-04T07:17:45.425Z,82.03
2018-12-04T07:20:12.962Z,81.80
2018-12-04T07:22:40.485Z,79.57
2018-12-04T07:25:08.023Z,81.63
2018-12-04T07:27:35.558Z,86.47
2018-12-04T07:30:04.349Z,83.47
2018-12-04T07:32:32.224Z,79.77
2018-12-04T07:34:59.744Z,81.17
2018-12-04T07:37:27.272Z,80.27
2018-12-04T07:39:54.827Z,78.73
2018-12-04T07:42:22.379Z,82.13
2018-12-04T07:44:50.930Z,80.60
2018-12-04T07:47:18.461Z,78.83
2018-12-04T07:49:46.405Z,78.67
2018-12-04T07:52:13.929Z,80.83
2018-12-04T07:54:41.440Z,78.43
2018-12-04T07:57:08.997Z,86.90
2018-12-04T07:59:36.513Z,85.43
2018-12-04T08:02:04.056Z,82.60
2018-12-04T08:04:31.588Z,83.37
2018-12-04T08:06:59.119Z,85.17
2018-12-04T08:09:26.641Z,92.47
2018-12-04T08:11:54.155Z,88.87
2018-12-04T08:14:21.664Z,94.33
2018-12-04T08:16:49.208Z,90.13
2018-12-04T08:19:17.068Z,93.30
2018-12-04T08:21:44.624Z,91.00
2018-12-04T08:24:12.192Z,89.70
2018-12-04T08:26:39.740Z,93.63
2018-12-04T08:29:07.274Z,91.37
2018-12-04T08:31:35.063Z,91.80
2018-12-04T08:34:02.598Z,91.33
2018-12-04T08:36:30.142Z,92.17
2018-12-04T08:38:57.656Z,87.90
2018-12-04T08:41:25.245Z,87.97
2018-12-04T08:43:52.852Z,89.17
2018-12-04T08:46:20.644Z,88.60
2018-12-04T08:48:48.164Z,86.93
2018-12-04T08:51:15.689Z,86.40
2018-12-04T08:53:43.204Z,86.87
2018-12-04T08:56:10.813Z,89.20
2018-12-04T08:58:38.360Z,89.30
2018-12-04T09:01:05.910Z,93.83
2018-12-04T09:03:33.444Z,93.50
2018-12-04T09:06:00.964Z,92.70
2018-12-04T09:08:28.872Z,90.87
2018-12-04T09:10:56.388Z,95.90
2018-12-04T09:13:23.902Z,93.13
2018-12-04T09:15:51.490Z,92.73
2018-12-04T09:18:19.035Z,90.00
2018-12-04T09:20:51.618Z,88.07
2018-12-04T09:23:19.407Z,93.03
2018-12-04T09:25:47.173Z,97.57
2018-12-04T09:28:14.713Z,96.53
2018-12-04T09:30:42.380Z,102.00
2018-12-04T09:33:10.189Z,100.10
2018-12-04T09:35:37.756Z,100.03
2018-12-04T09:38:05.303Z,104.90
2018-12-04T09:40:33.641Z,109.93
2018-12-04T09:43:04.132Z,106.67
2018-12-04T09:45:30.736Z,111.97
2018-12-04T09:47:58.273Z,108.23
2018-12-04T09:50:26.024Z,108.50
2018-12-04T09:52:53.552Z,106.33
2018-12-04T09:55:21.091Z,106.30
2018-12-04T09:57:48.694Z,104.73
2018-12-04T10:00:16.213Z,106.53
2018-12-04T10:02:43.812Z,106.13
2018-12-04T10:05:11.340Z,103.93
2018-12-04T10:07:38.864Z,103.93
2018-12-04T10:10:07.422Z,108.97
2018-12-04T10:12:35.823Z,107.00
2018-12-04T10:15:03.517Z,105.83
2018-12-04T10:17:31.108Z,105.92
2018-12-04T10:19:58.692Z,104.50
2018-12-04T10:22:26.247Z,101.87
2018-12-04T10:24:53.805Z,101.97
2018-12-04T10:27:21.336Z,103.97
2018-12-04T10:29:49.211Z,102.50
2018-12-04T10:32:16.794Z,101.27
2018-12-04T10:34:44.313Z,102.02
2018-12-04T10:37:11.855Z,99.80
2018-12-04T10:39:39.455Z,99.62
2018-12-04T10:42:06.984Z,105.80
2018-12-04T10:44:34.553Z,104.32
2018-12-04T10:47:02.675Z,104.15
2018-12-04T10:49:30.222Z,108.97
2018-12-04T10:51:57.799Z,111.68
2018-12-04T10:54:25.359Z,105.17
2018-12-04T10:56:52.938Z,108.65
2018-12-04T10:59:20.493Z,112.37
2018-12-04T11:01:53.440Z,107.07
2018-12-04T11:04:20.965Z,107.97
2018-12-04T11:06:48.585Z,112.92
2018-12-04T11:09:16.156Z,110.52
2018-12-04T11:11:43.678Z,106.40
2018-12-04T11:14:11.208Z,109.00
2018-12-04T11:16:38.738Z,110.40
2018-12-04T11:19:06.284Z,108.83
2018-12-04T11:21:33.813Z,112.72
2018-12-04T11:24:01.345Z,110.00
2018-12-04T11:26:29.734Z,110.32
2018-12-04T11:28:57.271Z,112.75
2018-12-04T11:31:24.814Z,111.88
2018-12-04T11:33:52.374Z,112.12
2018-12-04T11:36:20.139Z,112.55
2018-12-04T11:38:47.925Z,114.92
2018-12-04T11:41:15.966Z,114.60
2018-12-04T11:43:43.485Z,115.28
2018-12-04T11:46:11.028Z,114.88
2018-12-04T11:48:38.590Z,118.80
2018-12-04T11:51:06.330Z,118.62
2018-12-04T11:53:33.861Z,117.53
2018-12-04T11:56:01.398Z,119.53
2018-12-04T11:58:29.397Z,120.70
2018-12-04T12:00:57.100Z,120.00
2018-12-04T12:03:24.632Z,120.00
2018-12-04T12:05:52.285Z,124.02
2018-12-04T12:08:19.919Z,120.42
2018-12-04T12:10:47.477Z,120.82
2018-12-04T12:13:15.016Z,124.05
2018-12-04T12:15:42.600Z,120.95
2018-12-04T12:18:10.131Z,118.70
2018-12-04T12:20:38.036Z,123.42
2018-12-04T12:23:05.630Z,122.37
2018-12-04T12:25:33.180Z,125.92
2018-12-04T12:28:00.707Z,125.53
2018-12-04T12:30:28.272Z,125.12
2018-12-04T12:32:55.797Z,119.77
2018-12-04T12:35:23.329Z,123.53
2018-12-04T12:37:51.433Z,124.82
2018-12-04T12:40:18.965Z,123.35
2018-12-04T12:42:46.816Z,121.72
2018-12-04T12:45:14.473Z,125.65
2018-12-04T12:47:42.101Z,125.92
2018-12-04T12:50:09.796Z,127.20
2018-12-04T12:52:37.328Z,134.70
2018-12-04T12:55:05.824Z,130.15
2018-12-04T12:57:33.387Z,133.05
2018-12-04T13:00:00.945Z,137.12
2018-12-04T13:02:28.501Z,136.28
2018-12-04T13:04:56.070Z,138.62
2018-12-04T13:07:23.719Z,138.37
2018-12-04T13:09:51.486Z,143.52
2018-12-04T13:12:19.030Z,140.28
2018-12-04T13:14:46.569Z,136.95
2018-12-04T13:17:14.173Z,140.22
2018-12-04T13:19:41.748Z,138.88
2018-12-04T13:22:09.302Z,138.43
2018-12-04T13:24:36.851Z,140.18
2018-12-04T13:27:04.450Z,141.03
2018-12-04T13:29:32.152Z,143.43
2018-12-04T13:31:59.694Z,139.50
2018-12-04T13:34:27.541Z,142.15
2018-12-04T13:36:55.118Z,138.87
2018-12-04T13:39:22.684Z,140.70
2018-12-04T13:41:50.220Z,140.83
2018-12-04T13:44:17.771Z,144.20
2018-12-04T13:46:45.589Z,146.17
2018-12-04T13:49:13.129Z,149.40
2018-12-04T13:51:40.742Z,145.43
2018-12-04T13:54:08.320Z,140.87
2018-12-04T13:56:35.966Z,142.27
2018-12-04T13:59:03.635Z,139.10
2018-12-04T14:01:31.166Z,134.83
2018-12-04T14:03:58.720Z,133.37
2018-12-04T14:06:26.320Z,143.83
2018-12-04T14:08:53.865Z,137.23
2018-12-04T14:11:21.567Z,143.80
2018-12-04T14:13:49.100Z,144.43
2018-12-04T14:16:16.646Z,142.37
2018-12-04T14:18:44.511Z,148.33
2018-12-04T14:21:12.162Z,152.00
2018-12-04T14:23:39.818Z,143.47
2018-12-04T14:26:07.759Z,144.57
2018-12-04T14:28:35.446Z,146.10
2018-12-04T14:31:03.167Z,146.57
2018-12-04T14:33:30.708Z,164.07
2018-12-04T14:35:58.233Z,165.47
2018-12-04T14:38:25.971Z,164.93
2018-12-04T14:40:53.614Z,163.63
2018-12-04T14:43:21.173Z,167.97
2018-12-04T14:45:48.939Z,169.83
2018-12-04T14:48:16.504Z,170.57
2018-12-04T14:50:44.165Z,170.97
2018-12-04T14:53:11.768Z,170.17
2018-12-04T14:55:39.386Z,175.60
2018-12-04T14:58:07.084Z,173.83
2018-12-04T15:00:34.835Z,171.20
2018-12-04T15:03:02.570Z,176.47
2018-12-04T15:05:30.138Z,174.43
2018-12-04T15:07:57.816Z,171.63
2018-12-04T15:10:25.361Z,172.43
2018-12-04T15:12:53.142Z,167.07
2018-12-04T15:15:20.790Z,176.20
2018-12-04T15:17:48.356Z,167.73
2018-12-04T15:20:15.881Z,164.10
2018-12-04T15:22:43.629Z,166.97
2018-12-04T15:25:11.162Z,178.93
2018-12-04T15:27:38.807Z,178.87
2018-12-04T15:30:08.081Z,185.03
2018-12-04T15:32:35.675Z,176.57
2018-12-04T15:35:05.615Z,175.70
2018-12-04T15:37:33.337Z,179.23
2018-12-04T15:40:00.932Z,175.60
2018-12-04T15:42:28.583Z,179.83
2018-12-04T15:44:56.297Z,182.53
2018-12-04T15:47:23.942Z,181.17
2018-12-04T15:49:51.646Z,186.67
2018-12-04T15:52:19.562Z,204.50
2018-12-04T15:54:47.100Z,201.93
2018-12-04T15:57:14.701Z,207.40
2018-12-04T15:59:42.308Z,212.07
2018-12-04T16:02:09.848Z,207.80
2018-12-04T16:04:37.388Z,210.83
2018-12-04T16:07:04.912Z,209.23
2018-12-04T16:09:32.456Z,209.23
2018-12-04T16:11:59.984Z,197.10
2018-12-04T16:14:27.562Z,211.87
2018-12-04T16:16:55.129Z,200.50
2018-12-04T16:19:22.689Z,176.70
2018-12-04T16:21:50.254Z,179.07
2018-12-04T16:24:17.810Z,180.17
2018-12-04T16:26:45.478Z,181.83
2018-12-04T16:29:13.023Z,176.67
2018-12-04T16:31:40.837Z,177.17
2018-12-04T16:34:08.469Z,171.63
2018-12-04T16:36:36.026Z,170.93
2018-12-04T16:39:06.248Z,174.37
2018-12-04T16:41:33.805Z,168.27
2018-12-04T16:44:01.597Z,178.13
2018-12-04T16:46:29.153Z,176.70
2018-12-04T16:48:56.905Z,179.00
2018-12-04T16:51:24.670Z,170.37
2018-12-04T16:53:52.228Z,179.87
2018-12-04T16:56:19.894Z,183.97
2018-12-04T16:58:47.438Z,178.43
2018-12-04T17:01:14.977Z,172.13
2018-12-04T17:03:42.522Z,178.30
2018-12-04T17:06:10.075Z,183.63
2018-12-04T17:08:37.861Z,187.10
2018-12-04T17:11:05.409Z,208.83
2018-12-04T17:13:33.259Z,183.67
2018-12-04T17:16:00.807Z,174.10
2018-12-04T17:18:28.993Z,175.33
2018-12-04T17:20:56.570Z,167.67
2018-12-04T17:23:24.137Z,178.80
2018-12-04T17:25:52.100Z,183.87
2018-12-04T17:28:19.752Z,193.43
2018-12-04T17:30:47.417Z,185.77
2018-12-04T17:33:15.070Z,190.73
2018-12-04T17:35:42.612Z,176.77
2018-12-04T17:38:10.157Z,198.20
2018-12-04T17:40:37.688Z,209.63
2018-12-04T17:43:05.398Z,200.83
2018-12-04T17:45:32.929Z,188.80
2018-12-04T17:48:00.447Z,190.27
2018-12-04T17:50:28.410Z,181.00
2018-12-04T17:52:55.969Z,193.53
2018-12-04T17:55:23.517Z,203.03
2018-12-04T17:57:51.050Z,198.77
2018-12-04T18:00:18.611Z,189.60
2018-12-04T18:02:46.172Z,199.83
2018-12-04T18:05:13.712Z,204.60
2018-12-04T18:07:41.464Z,203.03
2018-12-04T18:10:09.096Z,208.40
2018-12-04T18:12:36.642Z,209.67
2018-12-04T18:15:05.044Z,213.70
2018-12-04T18:17:33.201Z,210.50
2018-12-04T18:20:01.124Z,206.47
2018-12-04T18:22:28.692Z,192.73
2018-12-04T18:24:56.228Z,197.87
2018-12-04T18:27:23.764Z,205.43
2018-12-04T18:29:51.305Z,206.93
2018-12-04T18:32:19.135Z,203.00
2018-12-04T18:34:46.685Z,207.67
2018-12-04T18:37:14.237Z,222.90
2018-12-04T18:39:41.781Z,227.43
2018-12-04T18:42:09.475Z,228.13
2018-12-04T18:44:37.042Z,237.77
2018-12-04T18:47:05.364Z,253.23
2018-12-04T18:49:32.927Z,296.23
2018-12-04T18:52:00.481Z,308.13
2018-12-04T18:54:28.499Z,320.63
2018-12-04T18:56:56.365Z,320.77
2018-12-04T18:59:23.974Z,314.73
2018-12-04T19:01:51.587Z,328.23
2018-12-04T19:04:19.201Z,320.73
2018-12-04T19:06:46.765Z,333.90
2018-12-04T19:09:14.367Z,318.83
2018-12-04T19:11:41.926Z,314.47
2018-12-04T19:14:09.532Z,322.23
2018-12-04T19:16:37.184Z,311.90
2018-12-04T19:19:04.819Z,318.37
2018-12-04T19:21:32.356Z,329.90
2018-12-04T19:24:00.348Z,356.20
2018-12-04T19:26:27.905Z,373.07
2018-12-04T19:28:55.425Z,428.47
2018-12-04T19:31:23.139Z,420.53
2018-12-04T19:33:50.765Z,428.40
2018-12-04T19:36:18.626Z,437.43
2018-12-04T19:38:46.228Z,409.07
2018-12-04T19:41:13.749Z,345.00
2018-12-04T19:43:41.330Z,330.30
2018-12-04T19:46:08.864Z,346.07
2018-12-04T19:48:36.392Z,326.70
2018-12-04T19:51:04.256Z,332.27
2018-12-04T19:53:31.804Z,330.57
2018-12-04T19:55:59.341Z,329.00
2018-12-04T19:58:26.873Z,307.50
2018-12-04T20:00:54.431Z,314.83
2018-12-04T20:03:22.153Z,303.83
2018-12-04T20:05:50.048Z,289.17
2018-12-04T20:08:17.599Z,262.23
2018-12-04T20:10:45.158Z,248.77
2018-12-04T20:13:12.826Z,245.50
2018-12-04T20:15:40.381Z,239.30
2018-12-04T20:18:07.975Z,236.93
2018-12-04T20:20:35.518Z,237.20
2018-12-04T20:23:03.057Z,231.70
2018-12-04T20:25:30.577Z,212.90
2018-12-04T20:27:58.162Z,211.03
2018-12-04T20:30:25.716Z,212.57
2018-12-04T20:32:59.668Z,215.67
2018-12-04T20:35:22.992Z,219.37
2018-12-04T20:37:50.551Z,220.17
2018-12-04T20:40:18.092Z,216.17
2018-12-04T20:42:45.638Z,222.30
2018-12-04T20:45:13.425Z,218.73
2018-12-04T20:47:41.327Z,222.40
2018-12-04T20:50:08.875Z,219.53
2018-12-04T20:52:36.468Z,220.77
2018-12-04T20:55:08.662Z,211.57
2018-12-04T20:57:34.143Z,214.47
2018-12-04T21:00:01.737Z,210.10
2018-12-04T21:02:30.872Z,215.33
2018-12-04T21:04:58.939Z,223.60
2018-12-04T21:07:26.475Z,227.37
2018-12-04T21:09:54.302Z,225.77
2018-12-04T21:12:21.831Z,225.00
2018-12-04T21:14:49.388Z,228.67
2018-12-04T21:17:17.855Z,233.53
2018-12-04T21:19:45.391Z,233.23
2018-12-04T21:22:13.373Z,227.10
2018-12-04T21:24:40.900Z,231.73
2018-12-04T21:27:11.864Z,229.13
2018-12-04T21:29:45.211Z,226.33
2018-12-04T21:32:18.426Z,225.40
2018-12-04T21:34:51.631Z,225.57
2018-12-04T21:37:24.737Z,216.73
2018-12-04T21:39:57.913Z,214.93
2018-12-04T21:42:31.064Z,226.30
2018-12-04T21:45:04.220Z,227.53
2018-12-04T21:47:37.417Z,230.13
2018-12-04T21:50:05.590Z,237.23
2018-12-04T21:52:33.217Z,235.20
2018-12-04T21:55:01.068Z,233.70
2018-12-04T21:57:28.609Z,243.40
2018-12-04T21:59:56.131Z,234.23
2018-12-04T22:02:23.663Z,242.23
2018-12-04T22:04:51.196Z,237.23
2018-12-04T22:07:19.100Z,240.40
2018-12-04T22:09:46.641Z,235.90
2018-12-04T22:12:14.817Z,237.83
2018-12-04T22:14:42.350Z,233.50
2018-12-04T22:17:10.496Z,232.83
2018-12-04T22:19:38.284Z,229.43
2018-12-04T22:22:05.845Z,238.47
2018-12-04T22:24:33.914Z,257.30
2018-12-04T22:27:01.446Z,255.47
2018-12-04T22:29:28.977Z,274.57
2018-12-04T22:31:56.527Z,264.70
2018-12-04T22:34:24.145Z,273.50
2018-12-04T22:36:51.681Z,268.10
2018-12-04T22:39:19.216Z,269.43
2018-12-04T22:41:46.741Z,270.53
2018-12-04T22:44:14.581Z,276.40
2018-12-04T22:46:42.125Z,267.47
2018-12-04T22:49:11.531Z,264.43
2018-12-04T22:51:39.183Z,256.33
2018-12-04T22:54:06.832Z,241.17
2018-12-04T22:56:35.847Z,251.93
2018-12-04T22:59:03.392Z,246.93
2018-12-04T23:01:38.174Z,247.00
2018-12-04T23:04:06.933Z,247.83
2018-12-04T23:06:35.655Z,233.17
2018-12-04T23:09:06.328Z,231.73
2018-12-04T23:11:34.185Z,223.17
2018-12-04T23:14:01.992Z,224.07
2018-12-04T23:16:29.517Z,229.97
2018-12-04T23:18:57.041Z,237.47
2018-12-04T23:21:24.685Z,239.37
2018-12-04T23:23:52.220Z,249.13
2018-12-04T23:26:20.033Z,245.60
2018-12-04T23:28:47.559Z,249.87
2018-12-04T23:31:15.098Z,239.00
2018-12-04T23:33:42.661Z,241.33
2018-12-04T23:36:10.312Z,233.47
2018-12-04T23:38:38.025Z,230.93
2018-12-04T23:41:05.544Z,224.70
2018-12-04T23:43:33.076Z,214.50
2018-12-04T23:46:00.620Z,227.03
2018-12-04T23:48:28.143Z,227.07
2018-12-04T23:50:56.229Z,228.63
2018-12-04T23:53:24.495Z,224.73
2018-12-04T23:55:52.025Z,206.17
2018-12-04T23:58:19.553Z,201.90
